sensor_id;sensor_type;location;lat;lon;timestamp;P1;durP1;ratioP1;P2;durP2;ratioP2
83184;SDS011;73080;48.768;11.528;2024-01-15T00:00:50;26.98;;;12.23;;
83184;SDS011;73080;48.768;11.528;2024-01-15T00:03:16;35.33;;;16.73;;
83184;SDS011;73080;48.768;11.528;2024-01-15T00:05:41;33.97;;;16.70;;
83184;SDS011;73080;48.768;11.528;2024-01-15T00:08:07;33.10;;;16.05;;
83184;SDS011;73080;48.768;11.528;2024-01-15T00:10:32;30.20;;;13.35;;
83184;SDS011;73080;48.768;11.528;2024-01-15T00:13:01;32.53;;;16.35;;
83184;SDS011;73080;48.768;11.528;2024-01-15T00:17:54;28.53;;;15.13;;
83184;SDS011;73080;48.768;11.528;2024-01-15T00:20:19;31.77;;;13.80;;
83184;SDS011;73080;48.768;11.528;2024-01-15T00:22:45;31.65;;;14.15;;
83184;SDS011;73080;48.768;11.528;2024-01-15T00:25:13;37.42;;;17.50;;
83184;SDS011;73080;48.768;11.528;2024-01-15T00:27:39;33.72;;;16.52;;
83184;SDS011;73080;48.768;11.528;2024-01-15T00:30:04;31.02;;;13.02;;
83184;SDS011;73080;48.768;11.528;2024-01-15T00:32:30;35.13;;;15.65;;
83184;SDS011;73080;48.768;11.528;2024-01-15T00:34:56;33.80;;;17.20;;
83184;SDS011;73080;48.768;11.528;2024-01-15T00:37:25;35.00;;;16.50;;
83184;SDS011;73080;48.768;11.528;2024-01-15T00:39:50;26.15;;;12.40;;
83184;SDS011;73080;48.768;11.528;2024-01-15T00:42:15;21.38;;;10.63;;
83184;SDS011;73080;48.768;11.528;2024-01-15T00:44:41;34.05;;;15.35;;
83184;SDS011;73080;48.768;11.528;2024-01-15T00:47:07;26.00;;;12.38;;
83184;SDS011;73080;48.768;11.528;2024-01-15T00:49:33;30.50;;;13.63;;
83184;SDS011;73080;48.768;11.528;2024-01-15T00:51:58;25.52;;;12.10;;
83184;SDS011;73080;48.768;11.528;2024-01-15T00:54:23;24.87;;;12.23;;
83184;SDS011;73080;48.768;11.528;2024-01-15T00:56:49;35.03;;;14.67;;
83184;SDS011;73080;48.768;11.528;2024-01-15T00:59:14;32.20;;;13.27;;
83184;SDS011;73080;48.768;11.528;2024-01-15T01:01:39;33.73;;;14.03;;
83184;SDS011;73080;48.768;11.528;2024-01-15T01:04:04;27.87;;;11.07;;
83184;SDS011;73080;48.768;11.528;2024-01-15T01:06:30;30.50;;;12.43;;
83184;SDS011;73080;48.768;11.528;2024-01-15T01:08:55;32.15;;;14.27;;
83184;SDS011;73080;48.768;11.528;2024-01-15T01:11:23;30.80;;;13.90;;
83184;SDS011;73080;48.768;11.528;2024-01-15T01:13:49;30.70;;;13.90;;
83184;SDS011;73080;48.768;11.528;2024-01-15T01:16:14;32.67;;;15.33;;
83184;SDS011;73080;48.768;11.528;2024-01-15T01:18:39;31.30;;;12.87;;
83184;SDS011;73080;48.768;11.528;2024-01-15T01:21:04;30.60;;;12.97;;
83184;SDS011;73080;48.768;11.528;2024-01-15T01:23:30;30.20;;;14.73;;
83184;SDS011;73080;48.768;11.528;2024-01-15T01:25:55;28.73;;;11.73;;
83184;SDS011;73080;48.768;11.528;2024-01-15T01:28:20;27.90;;;12.93;;
83184;SDS011;73080;48.768;11.528;2024-01-15T01:30:48;28.93;;;10.37;;
83184;SDS011;73080;48.768;11.528;2024-01-15T01:33:14;28.20;;;12.25;;
83184;SDS011;73080;48.768;11.528;2024-01-15T01:35:39;35.27;;;13.90;;
83184;SDS011;73080;48.768;11.528;2024-01-15T01:38:04;30.60;;;12.90;;
83184;SDS011;73080;48.768;11.528;2024-01-15T01:40:29;28.83;;;11.90;;
83184;SDS011;73080;48.768;11.528;2024-01-15T01:42:55;24.80;;;11.00;;
83184;SDS011;73080;48.768;11.528;2024-01-15T01:45:20;25.40;;;11.87;;
83184;SDS011;73080;48.768;11.528;2024-01-15T01:47:45;29.13;;;13.53;;
83184;SDS011;73080;48.768;11.528;2024-01-15T01:50:11;31.10;;;12.27;;
83184;SDS011;73080;48.768;11.528;2024-01-15T01:52:37;29.05;;;11.98;;
83184;SDS011;73080;48.768;11.528;2024-01-15T01:55:03;32.55;;;12.70;;
83184;SDS011;73080;48.768;11.528;2024-01-15T01:57:29;26.30;;;11.75;;
83184;SDS011;73080;48.768;11.528;2024-01-15T01:59:56;34.83;;;13.05;;
83184;SDS011;73080;48.768;11.528;2024-01-15T02:02:22;21.55;;;10.13;;
83184;SDS011;73080;48.768;11.528;2024-01-15T02:04:49;26.27;;;11.02;;
83184;SDS011;73080;48.768;11.528;2024-01-15T02:07:15;25.92;;;12.05;;
83184;SDS011;73080;48.768;11.528;2024-01-15T02:09:41;26.45;;;10.43;;
83184;SDS011;73080;48.768;11.528;2024-01-15T02:12:06;28.45;;;11.65;;
83184;SDS011;73080;48.768;11.528;2024-01-15T02:14:32;25.58;;;10.32;;
83184;SDS011;73080;48.768;11.528;2024-01-15T02:17:01;20.23;;;10.63;;
83184;SDS011;73080;48.768;11.528;2024-01-15T02:19:26;24.15;;;10.75;;
83184;SDS011;73080;48.768;11.528;2024-01-15T02:21:51;22.83;;;9.23;;
83184;SDS011;73080;48.768;11.528;2024-01-15T02:24:17;20.80;;;9.57;;
83184;SDS011;73080;48.768;11.528;2024-01-15T02:26:43;27.58;;;11.82;;
83184;SDS011;73080;48.768;11.528;2024-01-15T02:29:08;26.63;;;9.82;;
83184;SDS011;73080;48.768;11.528;2024-01-15T02:31:36;25.35;;;12.90;;
83184;SDS011;73080;48.768;11.528;2024-01-15T02:34:01;26.15;;;11.52;;
83184;SDS011;73080;48.768;11.528;2024-01-15T02:36:27;25.95;;;11.38;;
83184;SDS011;73080;48.768;11.528;2024-01-15T02:38:55;27.98;;;10.82;;
83184;SDS011;73080;48.768;11.528;2024-01-15T02:41:24;23.98;;;10.77;;
83184;SDS011;73080;48.768;11.528;2024-01-15T02:43:52;19.13;;;8.52;;
83184;SDS011;73080;48.768;11.528;2024-01-15T02:46:17;26.95;;;10.07;;
83184;SDS011;73080;48.768;11.528;2024-01-15T02:48:43;29.13;;;10.55;;
83184;SDS011;73080;48.768;11.528;2024-01-15T02:51:08;22.73;;;9.57;;
83184;SDS011;73080;48.768;11.528;2024-01-15T02:53:37;23.40;;;10.88;;
83184;SDS011;73080;48.768;11.528;2024-01-15T02:56:02;24.08;;;11.48;;
83184;SDS011;73080;48.768;11.528;2024-01-15T02:58:28;22.33;;;10.00;;
83184;SDS011;73080;48.768;11.528;2024-01-15T03:00:53;20.40;;;9.48;;
83184;SDS011;73080;48.768;11.528;2024-01-15T03:03:19;23.27;;;11.23;;
83184;SDS011;73080;48.768;11.528;2024-01-15T03:05:44;26.77;;;10.70;;
83184;SDS011;73080;48.768;11.528;2024-01-15T03:08:10;28.23;;;10.15;;
83184;SDS011;73080;48.768;11.528;2024-01-15T03:10:35;27.35;;;10.75;;
83184;SDS011;73080;48.768;11.528;2024-01-15T03:13:00;20.80;;;9.23;;
83184;SDS011;73080;48.768;11.528;2024-01-15T03:15:26;27.20;;;10.70;;
83184;SDS011;73080;48.768;11.528;2024-01-15T03:17:54;24.08;;;10.10;;
83184;SDS011;73080;48.768;11.528;2024-01-15T03:20:19;25.05;;;10.32;;
83184;SDS011;73080;48.768;11.528;2024-01-15T03:22:45;25.10;;;12.15;;
83184;SDS011;73080;48.768;11.528;2024-01-15T03:25:10;24.77;;;12.98;;
83184;SDS011;73080;48.768;11.528;2024-01-15T03:27:36;22.37;;;10.63;;
83184;SDS011;73080;48.768;11.528;2024-01-15T03:30:01;24.07;;;10.07;;
83184;SDS011;73080;48.768;11.528;2024-01-15T03:32:26;23.70;;;10.13;;
83184;SDS011;73080;48.768;11.528;2024-01-15T03:34:52;20.98;;;8.57;;
83184;SDS011;73080;48.768;11.528;2024-01-15T03:37:17;20.35;;;8.98;;
83184;SDS011;73080;48.768;11.528;2024-01-15T03:39:45;22.88;;;9.55;;
83184;SDS011;73080;48.768;11.528;2024-01-15T03:42:11;25.10;;;9.60;;
83184;SDS011;73080;48.768;11.528;2024-01-15T03:44:42;24.35;;;10.18;;
83184;SDS011;73080;48.768;11.528;2024-01-15T03:47:07;24.38;;;10.02;;
83184;SDS011;73080;48.768;11.528;2024-01-15T03:49:33;21.75;;;9.35;;
83184;SDS011;73080;48.768;11.528;2024-01-15T03:51:58;16.75;;;9.07;;
83184;SDS011;73080;48.768;11.528;2024-01-15T03:54:23;20.77;;;8.10;;
83184;SDS011;73080;48.768;11.528;2024-01-15T03:56:49;23.00;;;9.65;;
83184;SDS011;73080;48.768;11.528;2024-01-15T03:59:14;19.92;;;7.82;;
83184;SDS011;73080;48.768;11.528;2024-01-15T04:01:40;19.90;;;9.40;;
83184;SDS011;73080;48.768;11.528;2024-01-15T04:04:05;15.35;;;7.57;;
83184;SDS011;73080;48.768;11.528;2024-01-15T04:06:30;20.42;;;7.90;;
83184;SDS011;73080;48.768;11.528;2024-01-15T04:08:56;16.13;;;8.23;;
83184;SDS011;73080;48.768;11.528;2024-01-15T04:11:24;19.13;;;9.55;;
83184;SDS011;73080;48.768;11.528;2024-01-15T04:13:49;16.70;;;7.80;;
83184;SDS011;73080;48.768;11.528;2024-01-15T04:16:15;19.55;;;8.55;;
83184;SDS011;73080;48.768;11.528;2024-01-15T04:18:40;22.20;;;9.43;;
83184;SDS011;73080;48.768;11.528;2024-01-15T04:21:06;19.45;;;9.15;;
83184;SDS011;73080;48.768;11.528;2024-01-15T04:23:32;14.50;;;6.55;;
83184;SDS011;73080;48.768;11.528;2024-01-15T04:25:57;15.90;;;7.43;;
83184;SDS011;73080;48.768;11.528;2024-01-15T04:28:23;18.33;;;6.90;;
83184;SDS011;73080;48.768;11.528;2024-01-15T04:30:48;15.13;;;6.00;;
83184;SDS011;73080;48.768;11.528;2024-01-15T04:33:13;14.97;;;6.80;;
83184;SDS011;73080;48.768;11.528;2024-01-15T04:35:39;14.93;;;6.88;;
83184;SDS011;73080;48.768;11.528;2024-01-15T04:38:04;18.67;;;7.80;;
83184;SDS011;73080;48.768;11.528;2024-01-15T04:40:29;14.98;;;8.13;;
83184;SDS011;73080;48.768;11.528;2024-01-15T04:43:00;15.45;;;6.13;;
83184;SDS011;73080;48.768;11.528;2024-01-15T04:45:25;16.42;;;6.90;;
83184;SDS011;73080;48.768;11.528;2024-01-15T04:47:51;14.70;;;7.45;;
83184;SDS011;73080;48.768;11.528;2024-01-15T04:50:25;15.97;;;8.40;;
83184;SDS011;73080;48.768;11.528;2024-01-15T04:52:51;14.88;;;5.43;;
83184;SDS011;73080;48.768;11.528;2024-01-15T04:55:16;14.40;;;6.20;;
83184;SDS011;73080;48.768;11.528;2024-01-15T04:57:42;17.63;;;8.05;;
83184;SDS011;73080;48.768;11.528;2024-01-15T05:00:07;14.15;;;6.47;;
83184;SDS011;73080;48.768;11.528;2024-01-15T05:02:36;14.05;;;7.40;;
83184;SDS011;73080;48.768;11.528;2024-01-15T05:05:01;15.50;;;8.40;;
83184;SDS011;73080;48.768;11.528;2024-01-15T05:07:27;14.23;;;6.43;;
83184;SDS011;73080;48.768;11.528;2024-01-15T05:09:52;13.57;;;5.43;;
83184;SDS011;73080;48.768;11.528;2024-01-15T05:12:18;17.20;;;8.20;;
83184;SDS011;73080;48.768;11.528;2024-01-15T05:14:43;17.40;;;7.63;;
83184;SDS011;73080;48.768;11.528;2024-01-15T05:17:08;16.20;;;7.50;;
83184;SDS011;73080;48.768;11.528;2024-01-15T05:19:34;15.87;;;8.40;;
83184;SDS011;73080;48.768;11.528;2024-01-15T05:21:59;13.20;;;5.95;;
83184;SDS011;73080;48.768;11.528;2024-01-15T05:24:25;11.55;;;6.30;;
83184;SDS011;73080;48.768;11.528;2024-01-15T05:26:50;10.60;;;5.10;;
83184;SDS011;73080;48.768;11.528;2024-01-15T05:29:15;13.52;;;6.45;;
83184;SDS011;73080;48.768;11.528;2024-01-15T05:31:41;10.52;;;5.70;;
83184;SDS011;73080;48.768;11.528;2024-01-15T05:34:06;14.27;;;6.03;;
83184;SDS011;73080;48.768;11.528;2024-01-15T05:36:34;10.60;;;4.97;;
83184;SDS011;73080;48.768;11.528;2024-01-15T05:39:00;14.88;;;5.97;;
83184;SDS011;73080;48.768;11.528;2024-01-15T05:41:25;11.25;;;5.78;;
83184;SDS011;73080;48.768;11.528;2024-01-15T05:43:51;14.02;;;6.22;;
83184;SDS011;73080;48.768;11.528;2024-01-15T05:46:19;14.30;;;5.72;;
83184;SDS011;73080;48.768;11.528;2024-01-15T05:48:48;12.13;;;5.53;;
83184;SDS011;73080;48.768;11.528;2024-01-15T05:53:38;10.27;;;5.00;;
83184;SDS011;73080;48.768;11.528;2024-01-15T05:56:04;13.40;;;6.38;;
83184;SDS011;73080;48.768;11.528;2024-01-15T05:58:30;12.65;;;5.72;;
83184;SDS011;73080;48.768;11.528;2024-01-15T06:00:55;11.35;;;4.72;;
83184;SDS011;73080;48.768;11.528;2024-01-15T06:03:20;10.10;;;5.13;;
83184;SDS011;73080;48.768;11.528;2024-01-15T06:05:46;9.80;;;4.03;;
83184;SDS011;73080;48.768;11.528;2024-01-15T06:08:14;12.43;;;5.63;;
83184;SDS011;73080;48.768;11.528;2024-01-15T06:10:39;14.50;;;6.63;;
83184;SDS011;73080;48.768;11.528;2024-01-15T06:13:07;12.13;;;5.17;;
83184;SDS011;73080;48.768;11.528;2024-01-15T06:15:32;14.80;;;7.75;;
83184;SDS011;73080;48.768;11.528;2024-01-15T06:18:01;14.13;;;6.57;;
83184;SDS011;73080;48.768;11.528;2024-01-15T06:20:26;10.90;;;5.35;;
83184;SDS011;73080;48.768;11.528;2024-01-15T06:22:51;11.03;;;5.37;;
83184;SDS011;73080;48.768;11.528;2024-01-15T06:25:16;13.03;;;6.50;;
83184;SDS011;73080;48.768;11.528;2024-01-15T06:27:42;12.02;;;6.10;;
83184;SDS011;73080;48.768;11.528;2024-01-15T06:30:10;10.57;;;7.13;;
83184;SDS011;73080;48.768;11.528;2024-01-15T06:32:36;9.40;;;4.55;;
83184;SDS011;73080;48.768;11.528;2024-01-15T06:35:01;11.80;;;4.30;;
83184;SDS011;73080;48.768;11.528;2024-01-15T06:37:29;11.33;;;5.33;;
83184;SDS011;73080;48.768;11.528;2024-01-15T06:39:55;8.05;;;3.85;;
83184;SDS011;73080;48.768;11.528;2024-01-15T06:42:20;13.40;;;6.47;;
83184;SDS011;73080;48.768;11.528;2024-01-15T06:44:45;9.73;;;5.27;;
83184;SDS011;73080;48.768;11.528;2024-01-15T06:47:11;8.32;;;4.10;;
83184;SDS011;73080;48.768;11.528;2024-01-15T06:49:36;9.02;;;4.65;;
83184;SDS011;73080;48.768;11.528;2024-01-15T06:52:01;12.55;;;6.00;;
83184;SDS011;73080;48.768;11.528;2024-01-15T06:54:27;11.65;;;4.97;;
83184;SDS011;73080;48.768;11.528;2024-01-15T06:56:52;11.03;;;4.40;;
83184;SDS011;73080;48.768;11.528;2024-01-15T06:59:17;10.27;;;4.47;;
83184;SDS011;73080;48.768;11.528;2024-01-15T07:01:42;10.33;;;4.70;;
83184;SDS011;73080;48.768;11.528;2024-01-15T07:04:08;9.17;;;4.23;;
83184;SDS011;73080;48.768;11.528;2024-01-15T07:06:33;9.27;;;3.93;;
83184;SDS011;73080;48.768;11.528;2024-01-15T07:08:58;7.63;;;4.23;;
83184;SDS011;73080;48.768;11.528;2024-01-15T07:11:23;11.20;;;4.70;;
83184;SDS011;73080;48.768;11.528;2024-01-15T07:13:49;11.37;;;5.17;;
83184;SDS011;73080;48.768;11.528;2024-01-15T07:16:14;10.53;;;5.47;;
83184;SDS011;73080;48.768;11.528;2024-01-15T07:18:39;10.73;;;5.20;;
83184;SDS011;73080;48.768;11.528;2024-01-15T07:21:04;10.73;;;3.73;;
83184;SDS011;73080;48.768;11.528;2024-01-15T07:23:31;10.67;;;4.17;;
83184;SDS011;73080;48.768;11.528;2024-01-15T07:25:56;10.32;;;4.35;;
83184;SDS011;73080;48.768;11.528;2024-01-15T07:28:21;11.50;;;5.47;;
83184;SDS011;73080;48.768;11.528;2024-01-15T07:30:47;8.50;;;4.23;;
83184;SDS011;73080;48.768;11.528;2024-01-15T07:33:12;11.83;;;4.50;;
83184;SDS011;73080;48.768;11.528;2024-01-15T07:35:37;8.70;;;4.10;;
83184;SDS011;73080;48.768;11.528;2024-01-15T07:38:02;11.33;;;5.00;;
83184;SDS011;73080;48.768;11.528;2024-01-15T07:40:28;11.67;;;5.53;;
83184;SDS011;73080;48.768;11.528;2024-01-15T07:42:53;11.03;;;4.87;;
83184;SDS011;73080;48.768;11.528;2024-01-15T07:45:18;11.33;;;4.67;;
83184;SDS011;73080;48.768;11.528;2024-01-15T07:47:43;9.77;;;4.67;;
83184;SDS011;73080;48.768;11.528;2024-01-15T07:50:09;8.97;;;4.83;;
83184;SDS011;73080;48.768;11.528;2024-01-15T07:52:34;10.13;;;4.47;;
83184;SDS011;73080;48.768;11.528;2024-01-15T07:54:59;8.80;;;3.47;;
83184;SDS011;73080;48.768;11.528;2024-01-15T07:57:25;10.57;;;5.00;;
83184;SDS011;73080;48.768;11.528;2024-01-15T07:59:50;9.18;;;3.60;;
83184;SDS011;73080;48.768;11.528;2024-01-15T08:02:15;11.13;;;5.10;;
83184;SDS011;73080;48.768;11.528;2024-01-15T08:04:41;10.03;;;5.50;;
83184;SDS011;73080;48.768;11.528;2024-01-15T08:07:06;11.20;;;5.43;;
83184;SDS011;73080;48.768;11.528;2024-01-15T08:09:33;10.98;;;5.10;;
83184;SDS011;73080;48.768;11.528;2024-01-15T08:11:59;13.35;;;4.97;;
83184;SDS011;73080;48.768;11.528;2024-01-15T08:14:24;10.50;;;4.87;;
83184;SDS011;73080;48.768;11.528;2024-01-15T08:16:49;11.13;;;4.70;;
83184;SDS011;73080;48.768;11.528;2024-01-15T08:19:14;11.63;;;4.87;;
83184;SDS011;73080;48.768;11.528;2024-01-15T08:21:40;11.50;;;5.20;;
83184;SDS011;73080;48.768;11.528;2024-01-15T08:24:05;12.03;;;5.63;;
83184;SDS011;73080;48.768;11.528;2024-01-15T08:26:31;9.38;;;3.90;;
83184;SDS011;73080;48.768;11.528;2024-01-15T08:28:56;11.05;;;5.03;;
83184;SDS011;73080;48.768;11.528;2024-01-15T08:31:21;10.73;;;4.97;;
83184;SDS011;73080;48.768;11.528;2024-01-15T08:33:47;15.10;;;5.53;;
83184;SDS011;73080;48.768;11.528;2024-01-15T08:36:12;11.67;;;5.97;;
83184;SDS011;73080;48.768;11.528;2024-01-15T08:38:38;9.53;;;5.10;;
83184;SDS011;73080;48.768;11.528;2024-01-15T08:41:03;8.95;;;4.07;;
83184;SDS011;73080;48.768;11.528;2024-01-15T08:43:29;9.05;;;5.32;;
83184;SDS011;73080;48.768;11.528;2024-01-15T08:45:54;10.90;;;5.00;;
83184;SDS011;73080;48.768;11.528;2024-01-15T08:48:19;13.30;;;5.87;;
83184;SDS011;73080;48.768;11.528;2024-01-15T08:50:45;10.60;;;4.53;;
83184;SDS011;73080;48.768;11.528;2024-01-15T08:53:10;10.23;;;5.82;;
83184;SDS011;73080;48.768;11.528;2024-01-15T08:55:35;11.60;;;5.70;;
83184;SDS011;73080;48.768;11.528;2024-01-15T08:58:00;10.77;;;4.57;;
83184;SDS011;73080;48.768;11.528;2024-01-15T09:00:26;12.73;;;4.33;;
83184;SDS011;73080;48.768;11.528;2024-01-15T09:02:51;13.83;;;7.13;;
83184;SDS011;73080;48.768;11.528;2024-01-15T09:05:16;7.57;;;3.77;;
83184;SDS011;73080;48.768;11.528;2024-01-15T09:07:41;7.77;;;4.10;;
83184;SDS011;73080;48.768;11.528;2024-01-15T09:10:07;11.97;;;4.57;;
83184;SDS011;73080;48.768;11.528;2024-01-15T09:12:32;10.48;;;5.53;;
83184;SDS011;73080;48.768;11.528;2024-01-15T09:14:57;7.23;;;3.10;;
83184;SDS011;73080;48.768;11.528;2024-01-15T09:17:23;11.47;;;4.57;;
83184;SDS011;73080;48.768;11.528;2024-01-15T09:19:48;9.60;;;5.20;;
83184;SDS011;73080;48.768;11.528;2024-01-15T09:22:13;7.93;;;5.17;;
83184;SDS011;73080;48.768;11.528;2024-01-15T09:24:41;13.90;;;4.87;;
83184;SDS011;73080;48.768;11.528;2024-01-15T09:27:06;9.13;;;3.45;;
83184;SDS011;73080;48.768;11.528;2024-01-15T09:29:31;7.63;;;3.77;;
83184;SDS011;73080;48.768;11.528;2024-01-15T09:31:56;8.60;;;3.80;;
83184;SDS011;73080;48.768;11.528;2024-01-15T09:34:21;7.13;;;3.27;;
83184;SDS011;73080;48.768;11.528;2024-01-15T09:36:47;8.63;;;4.20;;
83184;SDS011;73080;48.768;11.528;2024-01-15T09:39:12;9.37;;;3.40;;
83184;SDS011;73080;48.768;11.528;2024-01-15T09:41:37;8.60;;;4.20;;
83184;SDS011;73080;48.768;11.528;2024-01-15T09:44:03;8.02;;;3.97;;
83184;SDS011;73080;48.768;11.528;2024-01-15T09:46:29;6.85;;;3.83;;
83184;SDS011;73080;48.768;11.528;2024-01-15T09:48:56;9.05;;;4.85;;
83184;SDS011;73080;48.768;11.528;2024-01-15T09:51:21;9.67;;;4.10;;
83184;SDS011;73080;48.768;11.528;2024-01-15T09:53:47;6.53;;;3.35;;
83184;SDS011;73080;48.768;11.528;2024-01-15T09:56:13;8.18;;;4.20;;
83184;SDS011;73080;48.768;11.528;2024-01-15T09:58:39;10.88;;;5.10;;
83184;SDS011;73080;48.768;11.528;2024-01-15T10:01:05;9.07;;;4.57;;
83184;SDS011;73080;48.768;11.528;2024-01-15T10:03:31;14.85;;;5.13;;
83184;SDS011;73080;48.768;11.528;2024-01-15T10:05:58;9.60;;;4.13;;
83184;SDS011;73080;48.768;11.528;2024-01-15T10:08:24;8.98;;;4.32;;
83184;SDS011;73080;48.768;11.528;2024-01-15T10:10:50;9.07;;;3.78;;
83184;SDS011;73080;48.768;11.528;2024-01-15T10:13:15;9.40;;;4.80;;
83184;SDS011;73080;48.768;11.528;2024-01-15T10:15:41;8.60;;;4.72;;
83184;SDS011;73080;48.768;11.528;2024-01-15T10:18:06;9.07;;;4.57;;
83184;SDS011;73080;48.768;11.528;2024-01-15T10:20:31;9.10;;;4.40;;
83184;SDS011;73080;48.768;11.528;2024-01-15T10:22:57;11.30;;;4.78;;
83184;SDS011;73080;48.768;11.528;2024-01-15T10:25:23;12.80;;;5.45;;
83184;SDS011;73080;48.768;11.528;2024-01-15T10:27:58;12.40;;;6.32;;
83184;SDS011;73080;48.768;11.528;2024-01-15T10:30:28;12.05;;;4.45;;
83184;SDS011;73080;48.768;11.528;2024-01-15T10:33:03;8.50;;;4.32;;
83184;SDS011;73080;48.768;11.528;2024-01-15T10:35:35;10.35;;;4.90;;
83184;SDS011;73080;48.768;11.528;2024-01-15T10:38:00;8.75;;;3.88;;
83184;SDS011;73080;48.768;11.528;2024-01-15T10:40:27;7.95;;;4.90;;
83184;SDS011;73080;48.768;11.528;2024-01-15T10:42:53;8.70;;;4.18;;
83184;SDS011;73080;48.768;11.528;2024-01-15T10:45:19;9.32;;;5.22;;
83184;SDS011;73080;48.768;11.528;2024-01-15T10:47:44;9.70;;;4.85;;
83184;SDS011;73080;48.768;11.528;2024-01-15T10:50:10;7.40;;;3.97;;
83184;SDS011;73080;48.768;11.528;2024-01-15T10:52:35;8.37;;;3.87;;
83184;SDS011;73080;48.768;11.528;2024-01-15T10:55:02;9.32;;;4.30;;
83184;SDS011;73080;48.768;11.528;2024-01-15T10:57:28;6.55;;;3.42;;
83184;SDS011;73080;48.768;11.528;2024-01-15T10:59:54;8.43;;;4.65;;
83184;SDS011;73080;48.768;11.528;2024-01-15T11:02:19;12.57;;;4.03;;
83184;SDS011;73080;48.768;11.528;2024-01-15T11:04:45;9.18;;;4.43;;
83184;SDS011;73080;48.768;11.528;2024-01-15T11:07:10;11.37;;;4.43;;
83184;SDS011;73080;48.768;11.528;2024-01-15T11:09:35;7.50;;;3.92;;
83184;SDS011;73080;48.768;11.528;2024-01-15T11:12:11;10.27;;;3.70;;
83184;SDS011;73080;48.768;11.528;2024-01-15T11:14:41;8.48;;;4.03;;
83184;SDS011;73080;48.768;11.528;2024-01-15T11:17:11;7.63;;;3.60;;
83184;SDS011;73080;48.768;11.528;2024-01-15T11:19:49;10.82;;;4.88;;
83184;SDS011;73080;48.768;11.528;2024-01-15T11:24:56;8.13;;;3.80;;
83184;SDS011;73080;48.768;11.528;2024-01-15T11:27:43;9.40;;;3.38;;
83184;SDS011;73080;48.768;11.528;2024-01-15T11:30:11;8.02;;;4.25;;
83184;SDS011;73080;48.768;11.528;2024-01-15T11:32:37;8.98;;;4.90;;
83184;SDS011;73080;48.768;11.528;2024-01-15T11:35:03;9.18;;;3.95;;
83184;SDS011;73080;48.768;11.528;2024-01-15T11:37:29;9.18;;;3.53;;
83184;SDS011;73080;48.768;11.528;2024-01-15T11:53:13;9.35;;;4.72;;
83184;SDS011;73080;48.768;11.528;2024-01-15T11:55:42;7.72;;;3.97;;
83184;SDS011;73080;48.768;11.528;2024-01-15T11:58:09;7.72;;;3.40;;
83184;SDS011;73080;48.768;11.528;2024-01-15T12:00:34;8.03;;;3.60;;
83184;SDS011;73080;48.768;11.528;2024-01-15T12:03:04;9.57;;;4.78;;
83184;SDS011;73080;48.768;11.528;2024-01-15T12:05:29;10.83;;;4.47;;
83184;SDS011;73080;48.768;11.528;2024-01-15T12:07:55;9.00;;;3.90;;
83184;SDS011;73080;48.768;11.528;2024-01-15T12:10:20;7.17;;;3.23;;
83184;SDS011;73080;48.768;11.528;2024-01-15T12:12:53;8.60;;;3.83;;
83184;SDS011;73080;48.768;11.528;2024-01-15T12:15:22;7.50;;;3.63;;
83184;SDS011;73080;48.768;11.528;2024-01-15T12:17:49;9.02;;;4.15;;
83184;SDS011;73080;48.768;11.528;2024-01-15T12:20:14;8.60;;;3.53;;
83184;SDS011;73080;48.768;11.528;2024-01-15T12:22:40;8.27;;;3.67;;
83184;SDS011;73080;48.768;11.528;2024-01-15T12:25:05;6.87;;;3.13;;
83184;SDS011;73080;48.768;11.528;2024-01-15T12:27:31;6.35;;;3.05;;
83184;SDS011;73080;48.768;11.528;2024-01-15T12:29:58;8.38;;;3.65;;
83184;SDS011;73080;48.768;11.528;2024-01-15T12:32:23;8.65;;;3.70;;
83184;SDS011;73080;48.768;11.528;2024-01-15T12:34:49;7.10;;;3.60;;
83184;SDS011;73080;48.768;11.528;2024-01-15T12:37:17;6.43;;;2.60;;
83184;SDS011;73080;48.768;11.528;2024-01-15T12:39:43;7.55;;;2.97;;
83184;SDS011;73080;48.768;11.528;2024-01-15T12:42:08;5.90;;;2.83;;
83184;SDS011;73080;48.768;11.528;2024-01-15T12:44:34;7.20;;;3.80;;
83184;SDS011;73080;48.768;11.528;2024-01-15T12:46:59;7.17;;;3.80;;
83184;SDS011;73080;48.768;11.528;2024-01-15T12:49:24;8.27;;;3.33;;
83184;SDS011;73080;48.768;11.528;2024-01-15T12:51:54;8.75;;;4.25;;
83184;SDS011;73080;48.768;11.528;2024-01-15T12:59:09;9.43;;;4.28;;
83184;SDS011;73080;48.768;11.528;2024-01-15T13:01:34;5.10;;;2.67;;
83184;SDS011;73080;48.768;11.528;2024-01-15T13:04:00;5.20;;;2.83;;
83184;SDS011;73080;48.768;11.528;2024-01-15T13:06:25;7.67;;;2.70;;
83184;SDS011;73080;48.768;11.528;2024-01-15T13:08:50;7.80;;;3.80;;
83184;SDS011;73080;48.768;11.528;2024-01-15T13:11:15;7.53;;;3.10;;
83184;SDS011;73080;48.768;11.528;2024-01-15T13:13:41;7.03;;;3.60;;
83184;SDS011;73080;48.768;11.528;2024-01-15T13:16:06;7.47;;;4.07;;
83184;SDS011;73080;48.768;11.528;2024-01-15T13:18:31;6.00;;;2.53;;
83184;SDS011;73080;48.768;11.528;2024-01-15T13:20:56;7.63;;;3.03;;
83184;SDS011;73080;48.768;11.528;2024-01-15T13:23:21;9.70;;;2.60;;
83184;SDS011;73080;48.768;11.528;2024-01-15T13:25:47;6.53;;;3.57;;
83184;SDS011;73080;48.768;11.528;2024-01-15T13:28:12;6.53;;;3.17;;
83184;SDS011;73080;48.768;11.528;2024-01-15T13:30:37;7.23;;;3.37;;
83184;SDS011;73080;48.768;11.528;2024-01-15T13:33:02;7.47;;;3.47;;
83184;SDS011;73080;48.768;11.528;2024-01-15T13:35:28;7.37;;;3.53;;
83184;SDS011;73080;48.768;11.528;2024-01-15T13:37:53;6.60;;;3.43;;
83184;SDS011;73080;48.768;11.528;2024-01-15T13:40:18;7.53;;;3.70;;
83184;SDS011;73080;48.768;11.528;2024-01-15T13:42:43;8.23;;;4.00;;
83184;SDS011;73080;48.768;11.528;2024-01-15T13:45:09;9.82;;;3.88;;
83184;SDS011;73080;48.768;11.528;2024-01-15T13:47:34;7.77;;;3.10;;
83184;SDS011;73080;48.768;11.528;2024-01-15T13:49:59;6.93;;;3.53;;
83184;SDS011;73080;48.768;11.528;2024-01-15T13:52:24;9.10;;;5.83;;
83184;SDS011;73080;48.768;11.528;2024-01-15T13:54:50;8.47;;;4.23;;
83184;SDS011;73080;48.768;11.528;2024-01-15T13:57:15;8.30;;;4.90;;
83184;SDS011;73080;48.768;11.528;2024-01-15T13:59:43;6.63;;;4.03;;
83184;SDS011;73080;48.768;11.528;2024-01-15T14:02:09;7.47;;;3.63;;
83184;SDS011;73080;48.768;11.528;2024-01-15T14:04:34;9.13;;;4.50;;
83184;SDS011;73080;48.768;11.528;2024-01-15T14:06:59;9.37;;;3.77;;
83184;SDS011;73080;48.768;11.528;2024-01-15T14:09:24;10.13;;;4.53;;
83184;SDS011;73080;48.768;11.528;2024-01-15T14:11:49;8.97;;;4.03;;
83184;SDS011;73080;48.768;11.528;2024-01-15T14:14:15;10.17;;;5.90;;
83184;SDS011;73080;48.768;11.528;2024-01-15T14:16:40;11.23;;;5.37;;
83184;SDS011;73080;48.768;11.528;2024-01-15T14:19:05;11.47;;;6.47;;
83184;SDS011;73080;48.768;11.528;2024-01-15T14:21:30;9.93;;;4.00;;
83184;SDS011;73080;48.768;11.528;2024-01-15T14:23:56;12.67;;;4.53;;
83184;SDS011;73080;48.768;11.528;2024-01-15T14:26:21;11.33;;;4.87;;
83184;SDS011;73080;48.768;11.528;2024-01-15T14:28:46;10.07;;;5.33;;
83184;SDS011;73080;48.768;11.528;2024-01-15T14:31:11;12.60;;;6.00;;
83184;SDS011;73080;48.768;11.528;2024-01-15T14:33:36;10.00;;;6.13;;
83184;SDS011;73080;48.768;11.528;2024-01-15T14:36:02;11.30;;;6.67;;
83184;SDS011;73080;48.768;11.528;2024-01-15T14:38:27;10.35;;;6.35;;
83184;SDS011;73080;48.768;11.528;2024-01-15T14:40:52;10.27;;;5.43;;